sensor_id;sensor_type;location;lat;lon;timestamp;pressure;altitude;pressure_sealevel;temperature;humidity
48200;BME280;33990;44.602;10.976;2022-11-15T00:01:56;101554.81;;;18.85;56.44
48200;BME280;33990;44.602;10.976;2022-11-15T00:04:42;101552.22;;;18.83;56.31
48200;BME280;33990;44.602;10.976;2022-11-15T00:07:28;101547.69;;;18.84;57.07
48200;BME280;33990;44.602;10.976;2022-11-15T00:10:34;101548.59;;;18.84;56.61
48200;BME280;33990;44.602;10.976;2022-11-15T00:13:20;101538.72;;;18.85;56.83
48200;BME280;33990;44.602;10.976;2022-11-15T00:16:06;101540.41;;;18.86;56.65
48200;BME280;33990;44.602;10.976;2022-11-15T00:18:51;101538.72;;;18.85;56.95
48200;BME280;33990;44.602;10.976;2022-11-15T00:21:37;101530.66;;;18.85;56.63
48200;BME280;33990;44.602;10.976;2022-11-15T00:24:23;101519.06;;;18.84;56.54
48200;BME280;33990;44.602;10.976;2022-11-15T00:27:09;101521.75;;;18.84;56.59
48200;BME280;33990;44.602;10.976;2022-11-15T00:29:55;101519.94;;;18.85;56.97
48200;BME280;33990;44.602;10.976;2022-11-15T00:32:41;101515.50;;;18.84;56.66
48200;BME280;33990;44.602;10.976;2022-11-15T00:35:27;101515.50;;;18.84;56.74
48200;BME280;33990;44.602;10.976;2022-11-15T00:38:12;101510.16;;;18.84;56.92
48200;BME280;33990;44.602;10.976;2022-11-15T00:40:59;101511.97;;;18.83;57.21
48200;BME280;33990;44.602;10.976;2022-11-15T00:43:51;101515.50;;;18.84;57.26
48200;BME280;33990;44.602;10.976;2022-11-15T00:46:37;101526.25;;;18.84;57.00
48200;BME280;33990;44.602;10.976;2022-11-15T00:49:23;101517.34;;;18.83;57.33
48200;BME280;33990;44.602;10.976;2022-11-15T00:52:09;101514.66;;;18.83;57.32
48200;BME280;33990;44.602;10.976;2022-11-15T00:54:55;101511.13;;;18.83;57.29
48200;BME280;33990;44.602;10.976;2022-11-15T00:57:40;101517.34;;;18.83;57.10
48200;BME280;33990;44.602;10.976;2022-11-15T01:00:26;101511.97;;;18.83;56.99
48200;BME280;33990;44.602;10.976;2022-11-15T01:03:12;101512.94;;;18.82;57.16
48200;BME280;33990;44.602;10.976;2022-11-15T01:06:01;101516.50;;;18.83;57.23
48200;BME280;33990;44.602;10.976;2022-11-15T01:08:47;101508.44;;;18.83;57.16
48200;BME280;33990;44.602;10.976;2022-11-15T01:11:33;101505.88;;;18.81;57.02
48200;BME280;33990;44.602;10.976;2022-11-15T01:14:19;101500.38;;;18.83;57.21
48200;BME280;33990;44.602;10.976;2022-11-15T01:17:10;101494.28;;;18.81;57.38
48200;BME280;33990;44.602;10.976;2022-11-15T01:19:55;101492.47;;;18.81;57.34
48200;BME280;33990;44.602;10.976;2022-11-15T01:22:41;101496.00;;;18.82;57.46
48200;BME280;33990;44.602;10.976;2022-11-15T01:25:27;101505.03;;;18.81;57.17
48200;BME280;33990;44.602;10.976;2022-11-15T01:28:13;101501.38;;;18.82;57.31
48200;BME280;33990;44.602;10.976;2022-11-15T01:31:00;101505.03;;;18.81;57.24
48200;BME280;33990;44.602;10.976;2022-11-15T01:33:46;101501.50;;;18.80;57.15
48200;BME280;33990;44.602;10.976;2022-11-15T01:36:32;101498.81;;;18.80;56.88
48200;BME280;33990;44.602;10.976;2022-11-15T01:39:18;101487.19;;;18.80;57.96
48200;BME280;33990;44.602;10.976;2022-11-15T01:42:04;101489.03;;;18.79;57.48
48200;BME280;33990;44.602;10.976;2022-11-15T01:44:50;101490.00;;;18.78;57.13
48200;BME280;33990;44.602;10.976;2022-11-15T01:47:43;101494.38;;;18.79;57.48
48200;BME280;33990;44.602;10.976;2022-11-15T01:50:32;101487.19;;;18.80;57.72
48200;BME280;33990;44.602;10.976;2022-11-15T01:53:21;101474.75;;;18.78;57.25
48200;BME280;33990;44.602;10.976;2022-11-15T01:56:13;101475.75;;;18.77;57.50
48200;BME280;33990;44.602;10.976;2022-11-15T01:59:03;101479.28;;;18.78;57.27
48200;BME280;33990;44.602;10.976;2022-11-15T02:01:50;101490.00;;;18.78;57.65
48200;BME280;33990;44.602;10.976;2022-11-15T02:04:42;101480.25;;;18.77;57.44
48200;BME280;33990;44.602;10.976;2022-11-15T02:07:29;101484.63;;;18.78;57.12
48200;BME280;33990;44.602;10.976;2022-11-15T02:10:22;101476.72;;;18.76;57.73
48200;BME280;33990;44.602;10.976;2022-11-15T02:13:08;101482.94;;;18.77;57.38
48200;BME280;33990;44.602;10.976;2022-11-15T02:18:53;101470.50;;;18.76;57.50
48200;BME280;33990;44.602;10.976;2022-11-15T02:28:04;101454.50;;;18.74;57.54
48200;BME280;33990;44.602;10.976;2022-11-15T02:31:13;101441.94;;;18.75;57.67
48200;BME280;33990;44.602;10.976;2022-11-15T02:34:26;101454.50;;;18.74;57.71
48200;BME280;33990;44.602;10.976;2022-11-15T02:37:27;101447.31;;;18.75;57.59
48200;BME280;33990;44.602;10.976;2022-11-15T02:43:24;101443.88;;;18.73;57.63
48200;BME280;33990;44.602;10.976;2022-11-15T02:49:37;101424.13;;;18.74;57.69
48200;BME280;33990;44.602;10.976;2022-11-15T02:52:25;101411.72;;;18.73;57.59
48200;BME280;33990;44.602;10.976;2022-11-15T02:55:31;101408.16;;;18.72;57.63
48200;BME280;33990;44.602;10.976;2022-11-15T03:01:38;101398.38;;;18.71;57.80
48200;BME280;33990;44.602;10.976;2022-11-15T03:07:40;101394.84;;;18.71;57.81
48200;BME280;33990;44.602;10.976;2022-11-15T03:10:40;101394.84;;;18.71;57.40
48200;BME280;33990;44.602;10.976;2022-11-15T03:13:44;101392.16;;;18.71;57.68
48200;BME280;33990;44.602;10.976;2022-11-15T03:16:40;101387.66;;;18.71;57.56
48200;BME280;33990;44.602;10.976;2022-11-15T03:22:36;101380.59;;;18.70;57.40
48200;BME280;33990;44.602;10.976;2022-11-15T03:25:25;101384.22;;;18.69;57.12
48200;BME280;33990;44.602;10.976;2022-11-15T03:28:23;101389.59;;;18.69;57.67
48200;BME280;33990;44.602;10.976;2022-11-15T03:31:13;101396.69;;;18.70;57.22
48200;BME280;33990;44.602;10.976;2022-11-15T03:34:29;101389.59;;;18.69;57.14
48200;BME280;33990;44.602;10.976;2022-11-15T03:37:17;101383.38;;;18.69;56.81
48200;BME280;33990;44.602;10.976;2022-11-15T03:40:07;101387.88;;;18.68;57.25
48200;BME280;33990;44.602;10.976;2022-11-15T03:43:22;101379.84;;;18.68;57.00
48200;BME280;33990;44.602;10.976;2022-11-15T03:46:17;101394.09;;;18.69;56.83
48200;BME280;33990;44.602;10.976;2022-11-15T03:49:35;101393.25;;;18.68;57.31
48200;BME280;33990;44.602;10.976;2022-11-15T03:52:22;101391.50;;;18.67;57.19
48200;BME280;33990;44.602;10.976;2022-11-15T03:55:11;101394.19;;;18.67;57.06
48200;BME280;33990;44.602;10.976;2022-11-15T03:58:00;101389.81;;;18.66;57.23
48200;BME280;33990;44.602;10.976;2022-11-15T04:00:46;101390.66;;;18.67;57.53
48200;BME280;33990;44.602;10.976;2022-11-15T04:03:32;101387.13;;;18.66;57.26
48200;BME280;33990;44.602;10.976;2022-11-15T04:06:18;101390.66;;;18.67;57.36
48200;BME280;33990;44.602;10.976;2022-11-15T04:09:04;101396.88;;;18.67;57.14
48200;BME280;33990;44.602;10.976;2022-11-15T04:11:49;101395.16;;;18.66;57.07
48200;BME280;33990;44.602;10.976;2022-11-15T04:14:35;101392.47;;;18.66;57.29
48200;BME280;33990;44.602;10.976;2022-11-15T04:17:21;101395.16;;;18.66;57.07
48200;BME280;33990;44.602;10.976;2022-11-15T04:20:19;101395.16;;;18.66;56.87
48200;BME280;33990;44.602;10.976;2022-11-15T04:23:24;101398.81;;;18.65;57.27
48200;BME280;33990;44.602;10.976;2022-11-15T04:26:28;101403.22;;;18.66;57.33
48200;BME280;33990;44.602;10.976;2022-11-15T04:29:14;101399.69;;;18.66;56.93
48200;BME280;33990;44.602;10.976;2022-11-15T04:32:18;101404.19;;;18.65;57.15
48200;BME280;33990;44.602;10.976;2022-11-15T04:35:04;101400.66;;;18.65;56.97
48200;BME280;33990;44.602;10.976;2022-11-15T04:37:50;101393.47;;;18.65;56.99
48200;BME280;33990;44.602;10.976;2022-11-15T04:40:37;101396.16;;;18.65;57.05
48200;BME280;33990;44.602;10.976;2022-11-15T04:43:23;101390.91;;;18.64;57.03
48200;BME280;33990;44.602;10.976;2022-11-15T04:46:08;101388.22;;;18.64;56.96
48200;BME280;33990;44.602;10.976;2022-11-15T04:48:54;101390.91;;;18.64;57.15
48200;BME280;33990;44.602;10.976;2022-11-15T04:51:44;101388.31;;;18.62;57.20
48200;BME280;33990;44.602;10.976;2022-11-15T04:54:30;101383.72;;;18.64;57.18
48200;BME280;33990;44.602;10.976;2022-11-15T04:57:16;101380.19;;;18.64;57.16
48200;BME280;33990;44.602;10.976;2022-11-15T05:00:04;101373.94;;;18.63;57.28
48200;BME280;33990;44.602;10.976;2022-11-15T05:02:50;101382.88;;;18.64;57.26
48200;BME280;33990;44.602;10.976;2022-11-15T05:05:55;101383.81;;;18.63;57.25
48200;BME280;33990;44.602;10.976;2022-11-15T05:08:41;101386.50;;;18.63;57.31
48200;BME280;33990;44.602;10.976;2022-11-15T05:11:27;101381.03;;;18.64;57.35
48200;BME280;33990;44.602;10.976;2022-11-15T05:14:13;101379.28;;;18.63;57.36
48200;BME280;33990;44.602;10.976;2022-11-15T05:16:59;101367.72;;;18.63;57.26
48200;BME280;33990;44.602;10.976;2022-11-15T05:19:45;101370.41;;;18.63;57.15
48200;BME280;33990;44.602;10.976;2022-11-15T05:22:31;101365.88;;;18.63;57.18
48200;BME280;33990;44.602;10.976;2022-11-15T05:25:17;101367.72;;;18.63;57.31
48200;BME280;33990;44.602;10.976;2022-11-15T05:28:03;101356.13;;;18.62;57.16
48200;BME280;33990;44.602;10.976;2022-11-15T05:30:49;101351.63;;;18.63;57.42
48200;BME280;33990;44.602;10.976;2022-11-15T05:33:35;101357.84;;;18.63;57.41
48200;BME280;33990;44.602;10.976;2022-11-15T05:36:39;101354.31;;;18.63;57.25
48200;BME280;33990;44.602;10.976;2022-11-15T05:39:26;101345.41;;;18.62;57.37
48200;BME280;33990;44.602;10.976;2022-11-15T05:42:15;101361.50;;;18.62;57.47
48200;BME280;33990;44.602;10.976;2022-11-15T05:45:02;101350.78;;;18.62;57.38
48200;BME280;33990;44.602;10.976;2022-11-15T05:47:52;101351.63;;;18.63;57.36
48200;BME280;33990;44.602;10.976;2022-11-15T05:50:41;101361.50;;;18.62;57.39
48200;BME280;33990;44.602;10.976;2022-11-15T05:53:29;101366.88;;;18.62;57.49
48200;BME280;33990;44.602;10.976;2022-11-15T05:56:16;101362.47;;;18.61;57.35
48200;BME280;33990;44.602;10.976;2022-11-15T05:59:02;101364.19;;;18.62;57.53
48200;BME280;33990;44.602;10.976;2022-11-15T06:01:48;101358.81;;;18.62;57.58
48200;BME280;33990;44.602;10.976;2022-11-15T06:04:35;101358.94;;;18.61;57.49
48200;BME280;33990;44.602;10.976;2022-11-15T06:07:21;101359.81;;;18.61;57.61
48200;BME280;33990;44.602;10.976;2022-11-15T06:10:08;101356.25;;;18.61;57.55
48200;BME280;33990;44.602;10.976;2022-11-15T06:12:58;101363.47;;;18.60;57.71
48200;BME280;33990;44.602;10.976;2022-11-15T06:15:46;101352.72;;;18.60;57.62
48200;BME280;33990;44.602;10.976;2022-11-15T06:18:33;101355.41;;;18.60;57.63
48200;BME280;33990;44.602;10.976;2022-11-15T06:21:19;101359.03;;;18.59;57.48
48200;BME280;33990;44.602;10.976;2022-11-15T06:24:06;101361.72;;;18.59;57.59
48200;BME280;33990;44.602;10.976;2022-11-15T06:26:52;101363.56;;;18.59;57.66
48200;BME280;33990;44.602;10.976;2022-11-15T06:29:38;101360.03;;;18.58;57.23
48200;BME280;33990;44.602;10.976;2022-11-15T06:32:23;101362.69;;;18.58;57.59
48200;BME280;33990;44.602;10.976;2022-11-15T06:35:09;101369.91;;;18.58;57.54
48200;BME280;33990;44.602;10.976;2022-11-15T06:37:55;101368.06;;;18.58;57.54
48200;BME280;33990;44.602;10.976;2022-11-15T06:40:41;101374.41;;;18.57;57.48
48200;BME280;33990;44.602;10.976;2022-11-15T06:43:29;101386.09;;;18.56;57.49
48200;BME280;33990;44.602;10.976;2022-11-15T06:46:15;101380.63;;;18.58;57.45
48200;BME280;33990;44.602;10.976;2022-11-15T06:49:01;101377.09;;;18.57;57.71
48200;BME280;33990;44.602;10.976;2022-11-15T06:51:54;101376.22;;;18.57;57.57
48200;BME280;33990;44.602;10.976;2022-11-15T06:54:43;101372.69;;;18.56;57.55
48200;BME280;33990;44.602;10.976;2022-11-15T06:57:28;101366.50;;;18.56;57.48
48200;BME280;33990;44.602;10.976;2022-11-15T07:00:16;101369.16;;;18.56;57.57
48200;BME280;33990;44.602;10.976;2022-11-15T07:03:02;101367.34;;;18.56;57.45
48200;BME280;33990;44.602;10.976;2022-11-15T07:05:53;101361.13;;;18.56;57.42
48200;BME280;33990;44.602;10.976;2022-11-15T07:08:40;101360.25;;;18.55;57.78
48200;BME280;33990;44.602;10.976;2022-11-15T07:11:27;101358.44;;;18.56;57.62
48200;BME280;33990;44.602;10.976;2022-11-15T07:14:13;101365.59;;;18.55;57.59
48200;BME280;33990;44.602;10.976;2022-11-15T07:16:59;101362.91;;;18.55;57.51
48200;BME280;33990;44.602;10.976;2022-11-15T07:19:45;101362.91;;;18.55;57.36
48200;BME280;33990;44.602;10.976;2022-11-15T07:22:30;101361.22;;;18.54;57.41
48200;BME280;33990;44.602;10.976;2022-11-15T07:25:18;101359.38;;;18.54;57.53
48200;BME280;33990;44.602;10.976;2022-11-15T07:28:04;101369.25;;;18.54;57.64
48200;BME280;33990;44.602;10.976;2022-11-15T07:30:50;101367.56;;;18.53;57.53
48200;BME280;33990;44.602;10.976;2022-11-15T07:33:36;101369.25;;;18.54;57.54
48200;BME280;33990;44.602;10.976;2022-11-15T07:36:22;101364.88;;;18.53;57.60
48200;BME280;33990;44.602;10.976;2022-11-15T07:39:08;101367.56;;;18.53;57.55
48200;BME280;33990;44.602;10.976;2022-11-15T07:41:55;101367.56;;;18.53;57.76
48200;BME280;33990;44.602;10.976;2022-11-15T07:45:01;101364.88;;;18.53;57.70
48200;BME280;33990;44.602;10.976;2022-11-15T07:47:48;101356.84;;;18.53;57.62
48200;BME280;33990;44.602;10.976;2022-11-15T07:50:34;101365.72;;;18.53;57.61
48200;BME280;33990;44.602;10.976;2022-11-15T07:53:20;101361.34;;;18.52;57.58
48200;BME280;33990;44.602;10.976;2022-11-15T07:56:06;101361.34;;;18.52;57.51
48200;BME280;33990;44.602;10.976;2022-11-15T07:58:52;101365.84;;;18.52;57.44
48200;BME280;33990;44.602;10.976;2022-11-15T08:01:38;101363.16;;;18.52;57.58
48200;BME280;33990;44.602;10.976;2022-11-15T08:04:24;101361.34;;;18.52;57.74
48200;BME280;33990;44.602;10.976;2022-11-15T08:07:10;101370.25;;;18.53;57.43
48200;BME280;33990;44.602;10.976;2022-11-15T08:09:56;101362.19;;;18.53;57.52
48200;BME280;33990;44.602;10.976;2022-11-15T08:12:42;101352.31;;;18.53;57.69
48200;BME280;33990;44.602;10.976;2022-11-15T08:15:29;101351.47;;;18.53;57.32
48200;BME280;33990;44.602;10.976;2022-11-15T08:18:15;101350.50;;;18.54;57.19
48200;BME280;33990;44.602;10.976;2022-11-15T08:21:02;101354.16;;;18.53;57.40
48200;BME280;33990;44.602;10.976;2022-11-15T08:23:48;101354.88;;;18.55;57.29
48200;BME280;33990;44.602;10.976;2022-11-15T08:26:33;101354.03;;;18.54;57.35
48200;BME280;33990;44.602;10.976;2022-11-15T08:29:20;101353.19;;;18.54;57.40
48200;BME280;33990;44.602;10.976;2022-11-15T08:32:05;101346.09;;;18.53;57.20
48200;BME280;33990;44.602;10.976;2022-11-15T08:34:52;101346.97;;;18.53;57.34
48200;BME280;33990;44.602;10.976;2022-11-15T08:37:38;101336.38;;;18.52;57.45
48200;BME280;33990;44.602;10.976;2022-11-15T08:40:24;101335.38;;;18.53;57.47
48200;BME280;33990;44.602;10.976;2022-11-15T08:43:12;101340.75;;;18.53;57.62
48200;BME280;33990;44.602;10.976;2022-11-15T08:46:00;101331.00;;;18.52;57.64
48200;BME280;33990;44.602;10.976;2022-11-15T08:48:46;101333.69;;;18.52;57.68
48200;BME280;33990;44.602;10.976;2022-11-15T08:51:32;101335.38;;;18.53;57.64
48200;BME280;33990;44.602;10.976;2022-11-15T08:54:18;101338.06;;;18.53;57.53
48200;BME280;33990;44.602;10.976;2022-11-15T08:57:04;101340.75;;;18.53;57.63
48200;BME280;33990;44.602;10.976;2022-11-15T08:59:50;101339.91;;;18.52;57.65
48200;BME280;33990;44.602;10.976;2022-11-15T09:02:38;101340.75;;;18.53;57.61
48200;BME280;33990;44.602;10.976;2022-11-15T09:05:29;101340.75;;;18.53;57.65
48200;BME280;33990;44.602;10.976;2022-11-15T09:08:14;101336.38;;;18.52;57.68
48200;BME280;33990;44.602;10.976;2022-11-15T09:11:20;101340.88;;;18.51;57.60
48200;BME280;33990;44.602;10.976;2022-11-15T09:14:07;101341.72;;;18.52;57.65
48200;BME280;33990;44.602;10.976;2022-11-15T09:16:53;101343.44;;;18.53;57.44
48200;BME280;33990;44.602;10.976;2022-11-15T09:19:39;101333.69;;;18.52;57.55
48200;BME280;33990;44.602;10.976;2022-11-15T09:22:24;101342.56;;;18.52;57.48
48200;BME280;33990;44.602;10.976;2022-11-15T09:25:12;101332.69;;;18.53;57.52
48200;BME280;33990;44.602;10.976;2022-11-15T09:27:58;101339.03;;;18.52;57.54
48200;BME280;33990;44.602;10.976;2022-11-15T09:30:44;101331.94;;;18.51;57.42
48200;BME280;33990;44.602;10.976;2022-11-15T09:33:32;101339.91;;;18.52;57.52
48200;BME280;33990;44.602;10.976;2022-11-15T09:36:18;101342.66;;;18.51;57.73
48200;BME280;33990;44.602;10.976;2022-11-15T09:39:04;101339.91;;;18.52;57.42
48200;BME280;33990;44.602;10.976;2022-11-15T09:57:18;101323.91;;;18.51;57.23
48200;BME280;33990;44.602;10.976;2022-11-15T09:59:56;101325.63;;;18.52;57.31
48200;BME280;33990;44.602;10.976;2022-11-15T10:05:25;101313.19;;;18.51;57.11
48200;BME280;33990;44.602;10.976;2022-11-15T10:10:37;101304.28;;;18.50;56.88
48200;BME280;33990;44.602;10.976;2022-11-15T10:13:22;101313.53;;;18.46;55.08
48200;BME280;33990;44.602;10.976;2022-11-15T10:15:51;101305.44;;;18.35;53.97
48200;BME280;33990;44.602;10.976;2022-11-15T10:18:36;101292.94;;;18.23;53.73
48200;BME280;33990;44.602;10.976;2022-11-15T10:21:16;101292.13;;;18.10;54.01
48200;BME280;33990;44.602;10.976;2022-11-15T10:23:48;101277.25;;;18.06;54.60
48200;BME280;33990;44.602;10.976;2022-11-15T10:26:17;101277.88;;;18.09;55.37
48200;BME280;33990;44.602;10.976;2022-11-15T10:28:44;101274.00;;;18.13;56.03
48200;BME280;33990;44.602;10.976;2022-11-15T10:31:23;101259.41;;;18.17;56.05
48200;BME280;33990;44.602;10.976;2022-11-15T10:34:02;101253.94;;;18.19;56.33
48200;BME280;33990;44.602;10.976;2022-11-15T10:36:38;101246.63;;;18.21;56.34
48200;BME280;33990;44.602;10.976;2022-11-15T10:39:05;101234.84;;;18.23;56.53
48200;BME280;33990;44.602;10.976;2022-11-15T10:41:36;101241.78;;;18.26;56.38
48200;BME280;33990;44.602;10.976;2022-11-15T10:46:36;101222.81;;;18.29;56.34
48200;BME280;33990;44.602;10.976;2022-11-15T10:52:02;101209.28;;;18.31;56.55
48200;BME280;33990;44.602;10.976;2022-11-15T10:57:14;101208.97;;;18.35;56.40
48200;BME280;33990;44.602;10.976;2022-11-15T10:59:47;101210.75;;;18.35;56.49
48200;BME280;33990;44.602;10.976;2022-11-15T11:02:37;101215.16;;;18.36;56.60
48200;BME280;33990;44.602;10.976;2022-11-15T11:05:31;101209.81;;;18.36;56.36
48200;BME280;33990;44.602;10.976;2022-11-15T11:10:38;101204.31;;;18.37;56.49
48200;BME280;33990;44.602;10.976;2022-11-15T11:13:27;101209.53;;;18.39;56.39
48200;BME280;33990;44.602;10.976;2022-11-15T11:16:00;101206.88;;;18.39;56.41
48200;BME280;33990;44.602;10.976;2022-11-15T11:18:41;101195.28;;;18.38;56.68
48200;BME280;33990;44.602;10.976;2022-11-15T11:21:14;101187.25;;;18.38;56.63
48200;BME280;33990;44.602;10.976;2022-11-15T11:23:52;101179.22;;;18.38;56.58
48200;BME280;33990;44.602;10.976;2022-11-15T11:35:35;101152.31;;;18.40;56.74
48200;BME280;33990;44.602;10.976;2022-11-15T11:41:09;101152.19;;;18.41;56.62
48200;BME280;33990;44.602;10.976;2022-11-15T11:46:56;101152.19;;;18.41;56.84
48200;BME280;33990;44.602;10.976;2022-11-15T11:52:25;101131.59;;;18.42;56.83
48200;BME280;33990;44.602;10.976;2022-11-15T11:55:18;101136.09;;;18.41;56.76
48200;BME280;33990;44.602;10.976;2022-11-15T11:58:04;101136.22;;;18.40;56.80
48200;BME280;33990;44.602;10.976;2022-11-15T12:00:35;101128.91;;;18.42;56.84
48200;BME280;33990;44.602;10.976;2022-11-15T12:03:14;101123.53;;;18.42;56.94
48200;BME280;33990;44.602;10.976;2022-11-15T12:05:50;101125.25;;;18.43;56.87
48200;BME280;33990;44.602;10.976;2022-11-15T12:08:23;101115.50;;;18.42;56.80
48200;BME280;33990;44.602;10.976;2022-11-15T12:13:34;101125.38;;;18.41;56.86
48200;BME280;33990;44.602;10.976;2022-11-15T12:16:14;101117.34;;;18.41;56.89
48200;BME280;33990;44.602;10.976;2022-11-15T12:18:49;101109.41;;;18.40;56.93
48200;BME280;33990;44.602;10.976;2022-11-15T12:23:51;101106.59;;;18.41;56.84
48200;BME280;33990;44.602;10.976;2022-11-15T12:26:26;101102.09;;;18.42;56.74
48200;BME280;33990;44.602;10.976;2022-11-15T12:29:03;101095.88;;;18.41;56.85
48200;BME280;33990;44.602;10.976;2022-11-15T12:36:51;101084.19;;;18.42;56.90
48200;BME280;33990;44.602;10.976;2022-11-15T12:39:19;101078.94;;;18.41;56.90
48200;BME280;33990;44.602;10.976;2022-11-15T13:02:44;101035.09;;;18.42;56.83
48200;BME280;33990;44.602;10.976;2022-11-15T13:23:07;101029.72;;;18.42;56.86
48200;BME280;33990;44.602;10.976;2022-11-15T13:30:37;101013.78;;;18.40;56.87
48200;BME280;33990;44.602;10.976;2022-11-15T13:33:37;101010.25;;;18.40;56.87
48200;BME280;33990;44.602;10.976;2022-11-15T13:36:07;101004.75;;;18.41;57.06
48200;BME280;33990;44.602;10.976;2022-11-15T13:38:38;101004.75;;;18.41;56.90
48200;BME280;33990;44.602;10.976;2022-11-15T13:41:20;101004.75;;;18.41;56.96
48200;BME280;33990;44.602;10.976;2022-11-15T13:43:50;101008.41;;;18.40;57.00
48200;BME280;33990;44.602;10.976;2022-11-15T13:46:30;100997.69;;;18.40;57.06
48200;BME280;33990;44.602;10.976;2022-11-15T13:49:04;100995.84;;;18.41;57.07
48200;BME280;33990;44.602;10.976;2022-11-15T13:51:50;100997.69;;;18.40;56.97
48200;BME280;33990;44.602;10.976;2022-11-15T13:54:33;100997.78;;;18.39;57.09
48200;BME280;33990;44.602;10.976;2022-11-15T13:57:26;100988.78;;;18.40;57.04
48200;BME280;33990;44.602;10.976;2022-11-15T14:00:04;100987.06;;;18.39;56.84
48200;BME280;33990;44.602;10.976;2022-11-15T14:02:38;100988.78;;;18.40;57.13
48200;BME280;33990;44.602;10.976;2022-11-15T14:05:18;100983.44;;;18.40;57.08
48200;BME280;33990;44.602;10.976;2022-11-15T14:08:02;100981.72;;;18.39;57.01
48200;BME280;33990;44.602;10.976;2022-11-15T14:10:35;100968.31;;;18.39;57.09
48200;BME280;33990;44.602;10.976;2022-11-15T14:13:03;100973.66;;;18.39;57.12
48200;BME280;33990;44.602;10.976;2022-11-15T14:18:00;100971.00;;;18.39;57.04
48200;BME280;33990;44.602;10.976;2022-11-15T14:20:38;100964.78;;;18.38;57.15
48200;BME280;33990;44.602;10.976;2022-11-15T14:23:24;100962.94;;;18.39;57.09
48200;BME280;33990;44.602;10.976;2022-11-15T14:25:56;100950.53;;;18.38;57.11
48200;BME280;33990;44.602;10.976;2022-11-15T14:30:54;100944.31;;;18.37;57.06
48200;BME280;33990;44.602;10.976;2022-11-15T14:33:27;100951.38;;;18.38;57.03
48200;BME280;33990;44.602;10.976;2022-11-15T14:36:18;100948.81;;;18.37;57.10
48200;BME280;33990;44.602;10.976;2022-11-15T14:38:45;100958.47;;;18.39;57.11
48200;BME280;33990;44.602;10.976;2022-11-15T14:41:22;100952.34;;;18.37;57.05
48200;BME280;33990;44.602;10.976;2022-11-15T14:43:51;100947.00;;;18.37;57.29
48200;BME280;33990;44.602;10.976;2022-11-15T14:46:19;100955.88;;;18.38;57.01
48200;BME280;33990;44.602;10.976;2022-11-15T14:48:46;100956.72;;;18.38;57.16
48200;BME280;33990;44.602;10.976;2022-11-15T14:51:16;100954.19;;;18.37;57.18
48200;BME280;33990;44.602;10.976;2022-11-15T14:53:44;100953.22;;;18.38;57.18
48200;BME280;33990;44.602;10.976;2022-11-15T14:56:12;100951.50;;;18.37;57.22
48200;BME280;33990;44.602;10.976;2022-11-15T14:58:40;100957.72;;;18.37;57.21
48200;BME280;33990;44.602;10.976;2022-11-15T15:01:21;100966.59;;;18.38;57.21
48200;BME280;33990;44.602;10.976;2022-11-15T15:03:50;100960.41;;;18.37;57.30
48200;BME280;33990;44.602;10.976;2022-11-15T15:06:24;100959.56;;;18.37;57.22
48200;BME280;33990;44.602;10.976;2022-11-15T15:08:51;100959.56;;;18.37;57.20
48200;BME280;33990;44.602;10.976;2022-11-15T15:11:25;100957.72;;;18.37;57.14
48200;BME280;33990;44.602;10.976;2022-11-15T15:13:54;100966.75;;;18.36;57.12
48200;BME280;33990;44.602;10.976;2022-11-15T15:16:24;100957.84;;;18.36;57.31
48200;BME280;33990;44.602;10.976;2022-11-15T15:18:51;100954.19;;;18.37;57.14
48200;BME280;33990;44.602;10.976;2022-11-15T15:21:26;100943.47;;;18.37;57.30
48200;BME280;33990;44.602;10.976;2022-11-15T15:24:02;100940.78;;;18.37;57.26
48200;BME280;33990;44.602;10.976;2022-11-15T15:26:29;100931.06;;;18.36;57.26
48200;BME280;33990;44.602;10.976;2022-11-15T15:29:00;100928.38;;;18.36;57.29
48200;BME280;33990;44.602;10.976;2022-11-15T15:31:28;100926.63;;;18.35;57.21
48200;BME280;33990;44.602;10.976;2022-11-15T15:33:55;100931.06;;;18.36;57.31
48200;BME280;33990;44.602;10.976;2022-11-15T15:36:22;100935.56;;;18.35;57.09
48200;BME280;33990;44.602;10.976;2022-11-15T15:38:49;100929.31;;;18.35;57.06
48200;BME280;33990;44.602;10.976;2022-11-15T15:41:17;100932.75;;;18.37;57.19
48200;BME280;33990;44.602;10.976;2022-11-15T15:43:44;100925.78;;;18.34;57.38
48200;BME280;33990;44.602;10.976;2022-11-15T15:46:15;100920.34;;;18.36;57.27
48200;BME280;33990;44.602;10.976;2022-11-15T15:48:43;100918.59;;;18.35;57.18
48200;BME280;33990;44.602;10.976;2022-11-15T15:51:11;100922.16;;;18.35;57.42
48200;BME280;33990;44.602;10.976;2022-11-15T15:53:47;100918.59;;;18.35;57.08
48200;BME280;33990;44.602;10.976;2022-11-15T15:56:15;100919.47;;;18.35;57.30
48200;BME280;33990;44.602;10.976;2022-11-15T15:58:42;100912.41;;;18.34;57.34
48200;BME280;33990;44.602;10.976;2022-11-15T16:01:09;100915.06;;;18.34;57.32
48200;BME280;33990;44.602;10.976;2022-11-15T16:03:37;100908.88;;;18.34;57.25
48200;BME280;33990;44.602;10.976;2022-11-15T16:06:04;100910.56;;;18.35;57.27
48200;BME280;33990;44.602;10.976;2022-11-15T16:08:32;100899.00;;;18.34;57.20
48200;BME280;33990;44.602;10.976;2022-11-15T16:11:13;100904.50;;;18.33;57.45
48200;BME280;33990;44.602;10.976;2022-11-15T16:13:41;100899.97;;;18.33;57.39
48200;BME280;33990;44.602;10.976;2022-11-15T16:16:12;100898.13;;;18.34;57.63
48200;BME280;33990;44.602;10.976;2022-11-15T16:18:40;100899.97;;;18.33;57.70